Time;durP1;ratioP1;P1;durP2;ratioP2;P2;SDS_P1;SDS_P2;PMS_P1;PMS_P2;Temp;Humidity;BMP_temperature;BMP_pressure;BME280_temperature;BME280_humidity;BME280_pressure;Samples;Min_cycle;Max_cycle;Signal;HPM_P1;HPM_P2
2023/08/25 04:01:36;;;;;;;0.60;0.20;;;22.70;99.90;;;;;;5337621;23;20568;-70
2023/08/25 04:04:04;;;;;;;0.60;0.10;;;22.60;99.90;;;;;;4902267;29;20455;-71
2023/08/25 04:06:32;;;;;;;0.60;0.10;;;22.50;99.90;;;;;;4902921;29;20456;-70
2023/08/25 04:09:00;;;;;;;0.60;0.10;;;22.50;99.90;;;;;;4905219;29;20449;-70
2023/08/25 04:11:28;;;;;;;3.03;2.90;;;22.40;99.90;;;;;;4911443;29;20469;-70
2023/08/25 04:13:55;;;;;;;3.13;0.60;;;22.30;99.90;;;;;;4933864;23;20815;-66
2023/08/25 04:16:23;;;;;;;0.60;0.20;;;23.00;99.90;;;;;;4897877;29;20481;-66
2023/08/25 04:18:52;;;;;;;0.60;0.20;;;22.30;99.90;;;;;;4898624;29;20503;-66
2023/08/25 04:21:20;;;;;;;0.60;0.20;;;22.40;99.90;;;;;;4899971;29;20459;-66
2023/08/25 04:23:48;;;;;;;0.60;0.10;;;22.40;99.90;;;;;;4899823;29;20471;-66
2023/08/25 04:26:16;;;;;;;0.60;0.10;;;22.40;99.90;;;;;;4899560;29;20453;-68
2023/08/25 04:28:43;;;;;;;0.60;0.10;;;22.30;99.90;;;;;;4899472;29;20492;-68
2023/08/25 04:31:11;;;;;;;0.60;0.10;;;22.20;99.90;;;;;;4900052;29;20495;-67
2023/08/25 04:33:39;;;;;;;0.90;0.20;;;22.10;99.90;;;;;;4900073;29;20453;-67
2023/08/25 04:36:12;;;;;;;0.60;0.20;;;22.10;99.90;;;;;;4900545;29;20449;-66
2023/08/25 04:38:40;;;;;;;0.60;0.10;;;22.20;99.90;;;;;;4899656;29;20591;-67
2023/08/25 04:41:08;;;;;;;0.60;0.10;;;22.30;99.90;;;;;;4899025;29;20453;-67
2023/08/25 04:43:36;;;;;;;0.60;0.10;;;22.40;99.90;;;;;;4899203;29;20521;-68
2023/08/25 04:46:03;;;;;;;0.60;0.10;;;22.40;99.90;;;;;;4898258;29;20501;-67
2023/08/25 04:48:31;;;;;;;0.80;0.63;;;22.40;99.90;;;;;;4899378;29;20448;-66
2023/08/25 04:50:59;;;;;;;0.90;0.67;;;22.40;99.90;;;;;;4899489;29;20449;-68
2023/08/25 04:53:29;;;;;;;0.93;0.63;;;;;;;;;;4899338;29;20459;-67
2023/08/25 04:55:56;;;;;;;3.50;1.30;;;22.30;99.90;;;;;;4898818;29;20449;-66
2023/08/25 04:58:24;;;;;;;3.53;2.10;;;22.30;1.00;;;;;;4899056;29;20536;-67
2023/08/25 05:00:54;;;;;;;1.43;0.90;;;22.40;1.00;;;;;;4898806;29;20457;-66
2023/08/25 05:03:22;;;;;;;4.23;3.93;;;22.40;1.00;;;;;;4898711;29;20814;-66
2023/08/25 05:05:51;;;;;;;1.73;0.87;;;;;;;;;;4898604;29;20812;-67
2023/08/25 05:08:18;;;;;;;1.27;0.60;;;22.40;1.00;;;;;;4898923;29;20453;-68
2023/08/25 05:10:48;;;;;;;0.60;0.20;;;22.40;1.00;;;;;;4898927;29;20536;-68
2023/08/25 05:13:15;;;;;;;0.60;0.10;;;22.50;1.00;;;;;;4898713;29;20487;-67
2023/08/25 05:15:44;;;;;;;0.60;0.20;;;22.50;1.00;;;;;;4898038;29;20476;-66
2023/08/25 05:18:12;;;;;;;0.60;0.10;;;22.60;1.00;;;;;;4898726;29;20481;-66
2023/08/25 05:20:40;;;;;;;1.13;0.97;;;22.60;1.00;;;;;;4898662;29;20998;-67
2023/08/25 05:23:08;;;;;;;0.60;0.30;;;22.50;1.00;;;;;;4898527;29;20449;-67
2023/08/25 05:25:37;;;;;;;1.17;1.07;;;22.70;1.00;;;;;;4898273;29;21088;-67
2023/08/25 05:28:06;;;;;;;0.73;0.60;;;22.70;1.00;;;;;;4898361;29;20453;-67
2023/08/25 05:30:34;;;;;;;6.37;5.77;;;22.50;99.90;;;;;;4898625;29;20456;-67
2023/08/25 05:33:02;;;;;;;0.60;0.10;;;22.50;1.00;;;;;;4898284;29;20537;-65
2023/08/25 05:35:30;;;;;;;1.67;1.10;;;22.40;1.00;;;;;;4898463;29;20473;-66
2023/08/25 05:37:58;;;;;;;0.73;0.70;;;22.40;1.00;;;;;;4898619;29;20549;-66
2023/08/25 05:40:26;;;;;;;0.60;0.20;;;22.40;1.00;;;;;;4898180;29;20481;-66
2023/08/25 05:42:54;;;;;;;0.70;0.20;;;22.40;1.00;;;;;;4898349;29;20816;-66
2023/08/25 05:45:23;;;;;;;0.60;0.10;;;22.50;1.00;;;;;;4898367;29;20479;-66
2023/08/25 05:47:51;;;;;;;0.93;0.70;;;22.50;1.00;;;;;;4898523;29;20962;-67
2023/08/25 05:50:19;;;;;;;2.63;2.40;;;22.50;1.00;;;;;;4897938;29;20446;-66
2023/08/25 05:52:47;;;;;;;0.80;0.50;;;22.30;1.00;;;;;;4898363;29;20461;-66
2023/08/25 05:55:17;;;;;;;0.80;0.50;;;22.20;1.00;;;;;;4898338;29;20548;-66
2023/08/25 05:57:45;;;;;;;1.40;1.27;;;22.10;1.00;;;;;;4898162;29;20445;-64
2023/08/25 06:00:14;;;;;;;1.23;0.67;;;21.90;1.00;;;;;;4897128;29;21024;-66
2023/08/25 06:02:43;;;;;;;2.87;0.77;;;21.90;1.00;;;;;;4897590;29;20457;-66
2023/08/25 06:05:11;;;;;;;5.30;4.27;;;21.80;1.00;;;;;;4897242;29;20469;-67
2023/08/25 06:07:39;;;;;;;3.30;2.87;;;21.80;1.00;;;;;;4898348;29;20791;-65
2023/08/25 06:10:08;;;;;;;0.60;0.30;;;21.60;1.00;;;;;;4898105;29;20559;-66
2023/08/25 06:12:35;;;;;;;2.63;2.37;;;21.70;1.00;;;;;;4897681;29;20449;-67
2023/08/25 06:15:04;;;;;;;8.33;5.67;;;21.60;1.00;;;;;;4896696;29;20850;-67
2023/08/25 06:17:32;;;;;;;2.20;1.47;;;21.50;1.00;;;;;;4897510;29;20956;-67
2023/08/25 06:20:03;;;;;;;3.80;2.07;;;21.40;1.00;;;;;;4897621;29;20521;-66
2023/08/25 06:22:31;;;;;;;3.83;3.50;;;21.40;1.00;;;;;;4897717;29;20448;-66
2023/08/25 06:24:59;;;;;;;0.80;0.70;;;;;;;;;;4896995;29;20484;-67
2023/08/25 06:27:27;;;;;;;3.53;2.47;;;;;;;;;;4897706;29;20456;-67
2023/08/25 06:29:55;;;;;;;1.77;1.53;;;21.50;1.00;;;;;;4897473;29;20446;-67
2023/08/25 06:32:23;;;;;;;0.60;0.20;;;;;;;;;;4895190;29;21049;-66
2023/08/25 06:34:53;;;;;;;1.87;1.67;;;21.60;1.00;;;;;;4889024;29;20834;-67
2023/08/25 06:37:22;;;;;;;1.00;0.90;;;21.50;1.00;;;;;;4897487;29;20488;-67
2023/08/25 06:39:50;;;;;;;7.07;5.10;;;21.50;1.00;;;;;;4897096;29;20568;-66
2023/08/25 06:42:18;;;;;;;0.70;0.37;;;21.50;1.00;;;;;;4896676;29;20544;-65
2023/08/25 06:44:46;;;;;;;5.50;3.07;;;21.70;1.00;;;;;;4896216;29;20529;-67
2023/08/25 06:47:13;;;;;;;2.33;1.90;;;21.70;1.00;;;;;;4896956;29;20465;-68
2023/08/25 06:49:42;;;;;;;0.60;0.20;;;;;;;;;;4896366;29;20922;-66
2023/08/25 06:52:10;;;;;;;0.60;0.10;;;21.70;1.00;;;;;;4896839;29;20464;-66
2023/08/25 06:54:39;;;;;;;0.60;0.20;;;22.00;1.00;;;;;;4906390;29;20587;-66
2023/08/25 06:57:07;;;;;;;0.60;0.10;;;22.00;1.00;;;;;;4897380;29;20554;-67
2023/08/25 06:59:34;;;;;;;0.60;0.10;;;22.30;1.00;;;;;;4896333;29;20536;-68
2023/08/25 07:02:03;;;;;;;0.60;0.10;;;22.40;1.00;;;;;;4894745;29;20548;-66
2023/08/25 07:04:31;;;;;;;0.60;0.10;;;22.50;1.00;;;;;;4896249;29;20468;-67
2023/08/25 07:07:00;;;;;;;0.60;0.20;;;22.60;1.00;;;;;;4895333;29;20453;-65
2023/08/25 07:09:28;;;;;;;0.60;0.10;;;22.60;1.00;;;;;;4893491;29;20458;-64
2023/08/25 07:11:58;;;;;;;0.60;0.10;;;22.70;1.00;;;;;;4894545;29;20505;-66
2023/08/25 07:14:27;;;;;;;0.60;0.23;;;22.90;1.00;;;;;;4895774;29;20477;-66
2023/08/25 07:16:55;;;;;;;0.60;0.10;;;23.10;1.00;;;;;;4887894;29;20522;-67
2023/08/25 07:19:23;;;;;;;0.60;0.10;;;23.10;1.00;;;;;;4885178;29;20486;-66
2023/08/25 07:21:51;;;;;;;1.03;0.93;;;23.20;1.00;;;;;;4895694;29;20581;-67
2023/08/25 07:24:20;;;;;;;1.73;1.63;;;28.20;99.90;;;;;;4896878;29;20477;-66
2023/08/25 07:26:48;;;;;;;0.60;0.10;;;23.30;99.90;;;;;;4896102;29;20457;-66
2023/08/25 07:29:18;;;;;;;0.60;0.10;;;23.30;99.90;;;;;;4886073;29;20484;-67
2023/08/25 07:31:46;;;;;;;0.60;0.10;;;23.30;99.90;;;;;;4893916;29;20978;-66
2023/08/25 07:34:14;;;;;;;1.67;0.30;;;23.40;99.90;;;;;;4894395;29;20480;-66
2023/08/25 07:36:43;;;;;;;0.60;0.20;;;23.50;99.90;;;;;;4886928;29;20464;-67
2023/08/25 07:39:17;;;;;;;0.60;0.20;;;23.50;99.90;;;;;;4895408;29;20552;-68
2023/08/25 07:41:45;;;;;;;0.70;0.33;;;23.50;99.90;;;;;;4894578;29;20499;-67
2023/08/25 07:44:13;;;;;;;0.60;0.30;;;23.50;99.90;;;;;;4894572;29;21003;-66
2023/08/25 07:46:43;;;;;;;3.17;1.43;;;23.50;99.90;;;;;;4886828;29;20477;-67
2023/08/25 07:49:11;;;;;;;2.00;1.67;;;23.40;99.90;;;;;;4890964;29;20473;-67
2023/08/25 07:51:39;;;;;;;0.60;0.20;;;23.00;99.90;;;;;;4893336;29;20537;-66
2023/08/25 07:54:08;;;;;;;0.60;0.10;;;23.00;99.90;;;;;;4895520;29;20473;-66
2023/08/25 07:56:36;;;;;;;0.70;0.30;;;23.00;99.90;;;;;;4895155;29;20453;-67
2023/08/25 07:59:05;;;;;;;0.60;0.10;;;23.00;99.90;;;;;;4895063;29;20832;-68
2023/08/25 08:01:33;;;;;;;4.27;0.83;;;23.00;99.90;;;;;;4895104;29;20485;-65
2023/08/25 08:04:03;;;;;;;0.60;0.20;;;23.10;99.90;;;;;;4895005;29;20509;-66
2023/08/25 08:06:34;;;;;;;0.60;0.30;;;23.10;99.90;;;;;;4894594;29;20504;-66
2023/08/25 08:09:03;;;;;;;0.60;0.20;;;23.20;99.90;;;;;;4895227;29;20930;-66
2023/08/25 08:11:34;;;;;;;0.77;0.30;;;23.20;99.90;;;;;;4895161;29;20454;-66
2023/08/25 08:14:01;;;;;;;1.00;0.40;;;23.40;99.90;;;;;;4894862;29;20479;-66
2023/08/25 08:16:30;;;;;;;2.07;1.00;;;23.40;99.90;;;;;;4889046;29;20934;-66
2023/08/25 08:18:58;;;;;;;0.60;0.20;;;23.20;99.90;;;;;;4895078;29;20509;-66
2023/08/25 08:21:27;;;;;;;0.60;0.20;;;23.20;99.90;;;;;;4897882;29;20484;-68
2023/08/25 08:23:55;;;;;;;1.70;1.60;;;23.30;99.90;;;;;;4895478;29;21010;-67
2023/08/25 08:26:23;;;;;;;4.43;1.43;;;23.30;99.90;;;;;;4896679;29;20501;-67
2023/08/25 08:28:51;;;;;;;0.60;0.10;;;23.30;99.90;;;;;;4887459;29;20505;-65
2023/08/25 08:31:18;;;;;;;0.70;0.47;;;23.40;99.90;;;;;;4894730;29;21131;-67
2023/08/25 08:33:47;;;;;;;1.87;1.37;;;23.50;99.90;;;;;;4895282;29;20537;-67
2023/08/25 08:36:16;;;;;;;0.70;0.20;;;23.40;99.90;;;;;;4895081;29;20568;-67
2023/08/25 08:38:45;;;;;;;0.80;0.77;;;23.40;99.90;;;;;;4896241;29;20545;-67
2023/08/25 08:41:15;;;;;;;1.43;0.97;;;23.40;99.90;;;;;;4892996;29;20484;-66
2023/08/25 08:43:46;;;;;;;1.20;0.63;;;24.10;99.90;;;;;;4897561;29;20527;-66
2023/08/25 08:46:16;;;;;;;1.70;1.27;;;23.50;99.90;;;;;;4898002;29;20461;-66
2023/08/25 08:48:44;;;;;;;0.60;0.10;;;23.40;99.90;;;;;;4898510;29;20457;-66
2023/08/25 08:51:15;;;;;;;0.83;0.40;;;23.40;99.90;;;;;;4898637;29;20453;-66
2023/08/25 08:53:47;;;;;;;1.53;0.57;;;23.40;99.90;;;;;;4899036;29;20453;-68
2023/08/25 08:56:16;;;;;;;1.97;1.03;;;23.50;99.90;;;;;;4898482;29;20461;-67
2023/08/25 08:58:44;;;;;;;3.67;1.77;;;23.40;99.90;;;;;;4898228;29;20457;-66
2023/08/25 09:01:12;;;;;;;1.00;0.80;;;23.40;99.90;;;;;;4895341;29;20491;-66
2023/08/25 09:03:40;;;;;;;0.90;0.20;;;23.40;99.90;;;;;;4897839;29;20464;-68
2023/08/25 09:06:08;;;;;;;0.93;0.63;;;23.40;99.90;;;;;;4897768;29;20453;-66
2023/08/25 09:08:36;;;;;;;1.93;0.50;;;23.50;99.90;;;;;;4897613;29;20505;-67
2023/08/25 09:11:06;;;;;;;1.60;1.43;;;23.50;99.90;;;;;;4897841;29;20544;-66
2023/08/25 09:13:35;;;;;;;1.73;1.13;;;23.50;99.90;;;;;;4897423;29;20457;-66
2023/08/25 09:16:12;;;;;;;0.80;0.60;;;23.50;99.90;;;;;;4897509;29;20465;-65
2023/08/25 09:18:40;;;;;;;2.30;2.10;;;23.60;99.90;;;;;;4898297;29;20496;-66
2023/08/25 09:21:19;;;;;;;1.67;1.20;;;23.50;99.90;;;;;;4899547;29;20476;-66
2023/08/25 09:23:58;;;;;;;5.50;1.50;;;23.60;99.90;;;;;;4897847;29;20457;-64
2023/08/25 09:26:30;;;;;;;0.70;0.37;;;23.60;99.90;;;;;;4895908;29;20488;-66
2023/08/25 09:28:59;;;;;;;3.77;2.13;;;23.70;99.90;;;;;;4897843;29;20457;-68
2023/08/25 09:31:28;;;;;;;0.70;0.43;;;23.70;99.90;;;;;;4898316;29;20457;-65
2023/08/25 09:34:01;;;;;;;1.00;0.70;;;23.70;99.90;;;;;;4898602;29;20568;-67
2023/08/25 09:36:30;;;;;;;6.33;0.70;;;23.70;99.90;;;;;;4900018;29;20484;-65
2023/08/25 09:38:58;;;;;;;1.17;0.70;;;23.60;99.90;;;;;;4898257;29;20540;-64
2023/08/25 09:41:35;;;;;;;0.60;0.17;;;23.70;99.90;;;;;;4895557;29;20476;-65
2023/08/25 09:44:03;;;;;;;0.70;0.30;;;23.90;99.90;;;;;;4897721;29;21031;-65
2023/08/25 09:46:33;;;;;;;0.80;0.40;;;23.90;99.90;;;;;;4896930;29;20868;-65
2023/08/25 09:49:02;;;;;;;2.97;1.80;;;23.90;99.90;;;;;;4898267;29;21136;-65
2023/08/25 09:51:37;;;;;;;1.37;0.70;;;23.90;99.90;;;;;;4898275;29;20452;-65
2023/08/25 09:54:08;;;;;;;0.97;0.67;;;24.10;99.90;;;;;;4897837;29;20465;-65
2023/08/25 09:56:39;;;;;;;0.60;0.20;;;24.10;99.90;;;;;;4897263;29;20540;-66
2023/08/25 09:59:08;;;;;;;8.23;0.87;;;24.20;99.90;;;;;;4897065;29;20460;-69
2023/08/25 10:01:37;;;;;;;0.60;0.20;;;24.30;99.90;;;;;;4896839;29;20487;-66
2023/08/25 10:04:06;;;;;;;0.60;0.10;;;24.50;99.90;;;;;;4897676;29;20500;-66
2023/08/25 10:06:36;;;;;;;0.63;0.17;;;24.50;99.90;;;;;;4897452;29;20477;-65
2023/08/25 10:09:04;;;;;;;0.63;0.20;;;24.60;99.90;;;;;;4897666;29;20453;-64
2023/08/25 10:11:37;;;;;;;1.23;0.87;;;24.60;99.90;;;;;;4897718;29;20897;-63
2023/08/25 10:14:10;;;;;;;0.70;0.10;;;24.70;99.90;;;;;;4897060;29;20520;-67
2023/08/25 10:16:41;;;;;;;0.70;0.47;;;24.90;99.90;;;;;;4896929;29;21013;-65
2023/08/25 10:19:14;;;;;;;0.70;0.20;;;24.90;99.90;;;;;;4896695;29;20469;-66
2023/08/25 10:21:45;;;;;;;4.00;1.90;;;25.10;99.90;;;;;;4896944;29;20484;-66
2023/08/25 10:24:15;;;;;;;0.70;0.10;;;24.90;99.90;;;;;;4894542;29;20540;-66
2023/08/25 10:26:44;;;;;;;2.63;1.20;;;25.00;99.90;;;;;;4896693;29;20970;-64
2023/08/25 10:29:17;;;;;;;0.70;0.20;;;25.20;99.90;;;;;;4894539;29;20443;-67
2023/08/25 10:31:47;;;;;;;0.80;0.40;;;25.30;99.90;;;;;;4909895;23;20504;-71
2023/08/25 10:34:31;;;;;;;0.80;0.50;;;25.40;99.90;;;;;;4896582;29;20478;-73
2023/08/25 10:37:07;;;;;;;2.20;1.33;;;25.50;99.90;;;;;;4895769;29;20528;-73
2023/08/25 10:39:52;;;;;;;0.80;0.67;;;25.50;99.90;;;;;;4894359;29;21005;-72
2023/08/25 10:42:23;;;;;;;0.70;0.10;;;25.40;99.90;;;;;;4893681;29;20498;-72
2023/08/25 10:44:56;;;;;;;0.70;0.20;;;25.50;99.90;;;;;;4896184;29;20446;-73
2023/08/25 10:47:24;;;;;;;0.70;0.20;;;25.60;99.90;;;;;;4896321;29;20442;-72
2023/08/25 10:49:54;;;;;;;0.70;0.10;;;25.70;99.90;;;;;;4895582;29;20541;-73
2023/08/25 10:52:22;;;;;;;0.70;0.20;;;25.70;99.90;;;;;;4898005;29;20497;-71
2023/08/25 10:54:52;;;;;;;0.80;0.70;;;;;;;;;;4896799;29;20546;-73
2023/08/25 10:57:22;;;;;;;1.43;0.30;;;25.70;99.90;;;;;;4897454;29;20835;-71
2023/08/25 10:59:51;;;;;;;0.80;0.30;;;25.80;99.90;;;;;;4897278;29;20454;-73
2023/08/25 11:02:36;;;;;;;0.70;0.20;;;25.70;99.90;;;;;;4897157;29;20485;-74
2023/08/25 11:05:39;;;;;;;0.90;0.50;;;25.80;99.90;;;;;;4896032;29;20514;-71
2023/08/25 11:08:24;;;;;;;1.13;1.00;;;25.80;99.90;;;;;;4896862;29;20453;-71
2023/08/25 11:11:11;;;;;;;1.00;0.77;;;25.80;99.90;;;;;;4896284;29;20484;-71
2023/08/25 11:13:40;;;;;;;0.70;0.27;;;25.90;99.90;;;;;;4896094;29;20525;-71
2023/08/25 11:16:10;;;;;;;0.90;0.67;;;25.90;99.90;;;;;;4892852;29;20553;-71
2023/08/25 11:18:41;;;;;;;0.67;0.20;;;26.00;99.90;;;;;;4896376;29;20468;-75
2023/08/25 11:21:09;;;;;;;0.80;0.43;;;26.00;99.90;;;;;;4896119;29;20541;-74
2023/08/25 11:23:42;;;;;;;0.70;0.20;;;26.00;99.90;;;;;;4898883;29;20485;-71
2023/08/25 11:26:10;;;;;;;2.10;1.40;;;26.10;99.90;;;;;;4914817;29;20455;-72
2023/08/25 11:28:38;;;;;;;1.03;0.73;;;26.20;99.90;;;;;;4900129;29;20517;-72
2023/08/25 11:31:07;;;;;;;0.80;0.27;;;26.20;99.90;;;;;;4896376;29;20571;-73
2023/08/25 11:33:35;;;;;;;1.40;0.97;;;26.20;99.90;;;;;;4896793;29;20541;-70
2023/08/25 11:36:05;;;;;;;1.63;0.50;;;26.10;99.90;;;;;;4896604;29;20483;-73
2023/08/25 11:38:33;;;;;;;1.17;0.70;;;26.00;99.90;;;;;;4896917;29;20457;-73
2023/08/25 11:41:01;;;;;;;0.70;0.10;;;26.20;99.90;;;;;;4893809;29;20472;-73
2023/08/25 11:43:32;;;;;;;0.70;0.50;;;26.30;99.90;;;;;;4892216;29;20549;-71
2023/08/25 11:46:00;;;;;;;1.10;0.73;;;26.20;99.90;;;;;;4896514;29;20958;-72
2023/08/25 11:48:28;;;;;;;0.80;0.30;;;26.30;99.90;;;;;;4896955;29;20457;-72
2023/08/25 11:50:56;;;;;;;0.70;0.20;;;26.40;99.90;;;;;;4896593;29;21045;-74
2023/08/25 11:53:26;;;;;;;1.33;0.50;;;26.40;99.90;;;;;;4891522;29;20834;-74
2023/08/25 11:56:01;;;;;;;1.60;1.40;;;26.50;99.90;;;;;;4894414;29;20935;-73
2023/08/25 11:58:31;;;;;;;1.13;0.93;;;26.50;99.90;;;;;;4896764;29;20454;-70
2023/08/25 12:01:06;;;;;;;0.73;0.30;;;26.30;99.90;;;;;;4896540;29;20495;-72
2023/08/25 12:03:36;;;;;;;0.70;0.20;;;26.30;99.90;;;;;;4896125;29;20557;-72
2023/08/25 12:06:05;;;;;;;0.70;0.10;;;26.10;99.90;;;;;;4897991;29;20492;-70
2023/08/25 12:08:35;;;;;;;1.67;0.97;;;26.20;99.90;;;;;;4898292;29;20453;-72
2023/08/25 12:11:05;;;;;;;0.80;0.50;;;26.20;99.90;;;;;;4899713;29;20497;-74
2023/08/25 12:13:35;;;;;;;1.23;1.13;;;26.20;99.90;;;;;;4897914;29;21022;-72
2023/08/25 12:16:04;;;;;;;0.97;0.40;;;26.40;99.90;;;;;;4896655;29;20455;-72
2023/08/25 12:18:34;;;;;;;0.70;0.30;;;26.50;99.90;;;;;;4900483;29;20946;-73
2023/08/25 12:21:03;;;;;;;0.70;0.20;;;26.60;99.90;;;;;;4883160;29;20474;-73
2023/08/25 12:23:36;;;;;;;0.80;0.67;;;26.50;99.90;;;;;;4894551;29;20509;-72
2023/08/25 12:26:05;;;;;;;1.43;0.83;;;26.40;99.90;;;;;;4903358;29;20485;-74
2023/08/25 12:28:33;;;;;;;1.80;1.70;;;26.40;99.90;;;;;;4903795;29;20473;-73
2023/08/25 12:31:03;;;;;;;2.10;0.53;;;26.20;99.90;;;;;;4898323;29;20524;-74
2023/08/25 12:33:32;;;;;;;0.70;0.20;;;26.20;99.90;;;;;;4895809;29;20445;-74
2023/08/25 12:36:00;;;;;;;0.70;0.30;;;26.10;99.90;;;;;;4899083;29;20461;-74
2023/08/25 12:38:29;;;;;;;0.70;0.10;;;26.10;99.90;;;;;;4899849;29;21037;-72
2023/08/25 12:40:59;;;;;;;2.10;1.13;;;26.00;99.90;;;;;;4899647;29;20471;-74
2023/08/25 12:43:28;;;;;;;6.00;3.10;;;26.00;99.90;;;;;;4893088;29;20520;-73
2023/08/25 12:45:57;;;;;;;2.30;1.37;;;25.90;99.90;;;;;;4891690;29;20460;-73
2023/08/25 12:48:25;;;;;;;0.80;0.30;;;25.90;99.90;;;;;;4894063;29;20450;-74
2023/08/25 12:50:52;;;;;;;6.50;2.10;;;25.70;99.90;;;;;;4898394;29;21038;-71
2023/08/25 12:53:20;;;;;;;0.90;0.23;;;25.70;99.90;;;;;;4899380;29;21170;-73
2023/08/25 12:55:48;;;;;;;1.10;0.47;;;25.70;99.90;;;;;;4897224;29;20461;-74
2023/08/25 12:58:17;;;;;;;1.10;0.80;;;25.80;99.90;;;;;;4898820;29;21030;-72
2023/08/25 13:00:45;;;;;;;1.00;0.40;;;25.90;99.90;;;;;;4899232;29;20560;-74
2023/08/25 13:03:14;;;;;;;0.80;0.40;;;26.00;99.90;;;;;;4900407;29;20999;-74
2023/08/25 13:05:42;;;;;;;2.43;1.57;;;26.00;99.90;;;;;;4899847;29;20457;-71
2023/08/25 13:08:09;;;;;;;1.73;1.63;;;26.10;99.90;;;;;;4899740;29;20900;-73
2023/08/25 13:10:37;;;;;;;0.70;0.20;;;26.00;99.90;;;;;;4900256;29;20541;-72
2023/08/25 13:13:06;;;;;;;2.63;1.90;;;26.00;99.90;;;;;;4900506;29;20493;-73
2023/08/25 13:15:35;;;;;;;0.70;0.10;;;26.20;99.90;;;;;;4895974;29;20959;-73
2023/08/25 13:18:03;;;;;;;3.67;2.20;;;26.30;99.90;;;;;;4897363;29;21019;-71
2023/08/25 13:20:31;;;;;;;0.70;0.10;;;26.40;99.90;;;;;;4880749;29;20470;-73
2023/08/25 13:23:00;;;;;;;0.80;0.30;;;26.50;99.90;;;;;;4888690;29;20464;-72
2023/08/25 13:25:29;;;;;;;1.07;0.83;;;26.50;99.90;;;;;;4899031;29;20960;-72
2023/08/25 13:27:57;;;;;;;1.00;0.77;;;26.40;99.90;;;;;;4900562;29;20465;-72
2023/08/25 13:30:24;;;;;;;1.97;1.27;;;26.50;99.90;;;;;;4901174;29;20553;-73
2023/08/25 13:32:54;;;;;;;1.00;0.27;;;26.50;99.90;;;;;;4898318;29;20462;-72
2023/08/25 13:35:22;;;;;;;1.53;1.13;;;26.60;99.90;;;;;;4898609;29;21011;-72
2023/08/25 13:37:50;;;;;;;1.00;0.30;;;;;;;;;;4899221;29;20474;-73
2023/08/25 13:40:18;;;;;;;1.00;0.80;;;26.70;99.90;;;;;;4899052;29;20507;-73
2023/08/25 13:42:46;;;;;;;0.87;0.50;;;26.70;99.90;;;;;;4891533;29;20459;-73
2023/08/25 13:45:14;;;;;;;1.40;1.30;;;26.70;99.90;;;;;;4900591;29;20908;-71
2023/08/25 13:47:42;;;;;;;0.70;0.40;;;26.80;99.90;;;;;;4899510;29;20525;-72
2023/08/25 13:50:11;;;;;;;1.00;0.63;;;27.20;99.90;;;;;;4898677;29;20541;-71
2023/08/25 13:52:39;;;;;;;0.70;0.20;;;27.20;99.90;;;;;;4898372;29;20510;-72
2023/08/25 13:55:08;;;;;;;1.17;1.07;;;27.30;99.90;;;;;;4887193;29;20455;-73
2023/08/25 13:57:37;;;;;;;0.83;0.60;;;27.50;99.90;;;;;;4879296;29;20538;-72
2023/08/25 14:00:07;;;;;;;2.47;1.57;;;27.50;99.90;;;;;;4880459;29;20451;-73
2023/08/25 14:02:35;;;;;;;0.87;0.63;;;27.50;99.90;;;;;;4883146;29;20452;-72
2023/08/25 14:05:04;;;;;;;0.87;0.70;;;27.30;99.90;;;;;;4895297;29;20488;-75
2023/08/25 14:07:34;;;;;;;1.13;0.60;;;27.10;99.90;;;;;;4893832;29;20525;-72
2023/08/25 14:10:04;;;;;;;3.10;2.23;;;26.90;99.90;;;;;;4891468;29;20532;-71
2023/08/25 14:12:33;;;;;;;2.30;1.70;;;26.90;99.90;;;;;;4897487;29;20546;-72
2023/08/25 14:15:01;;;;;;;0.80;0.40;;;26.90;99.90;;;;;;4888321;29;20489;-71
2023/08/25 14:17:29;;;;;;;1.57;0.63;;;27.00;99.90;;;;;;4900296;29;20504;-74
2023/08/25 14:19:57;;;;;;;0.80;0.70;;;27.00;99.90;;;;;;4895224;29;20452;-72
2023/08/25 14:22:25;;;;;;;0.70;0.30;;;27.10;99.90;;;;;;4902226;29;20485;-72
2023/08/25 14:24:54;;;;;;;1.00;0.60;;;27.30;99.90;;;;;;4900426;29;21012;-71
2023/08/25 14:27:22;;;;;;;1.23;0.50;;;27.40;99.90;;;;;;4898190;29;20455;-73
2023/08/25 14:29:50;;;;;;;3.63;1.13;;;27.40;99.90;;;;;;4897339;29;21031;-72
2023/08/25 14:32:17;;;;;;;2.57;1.27;;;27.30;99.90;;;;;;4893929;29;20547;-74
2023/08/25 14:34:45;;;;;;;0.90;0.60;;;27.20;99.90;;;;;;4895641;29;20544;-72
2023/08/25 14:37:13;;;;;;;2.13;1.13;;;27.20;99.90;;;;;;4897048;29;20452;-73
2023/08/25 14:39:41;;;;;;;0.70;0.10;;;27.30;99.90;;;;;;4895774;29;20499;-72
2023/08/25 14:42:12;;;;;;;1.97;1.10;;;27.30;99.90;;;;;;4894182;29;21447;-73
2023/08/25 14:44:40;;;;;;;1.60;1.10;;;27.20;99.90;;;;;;4893252;29;20518;-76
2023/08/25 14:47:08;;;;;;;5.90;0.77;;;27.00;99.90;;;;;;4901024;29;20472;-73
2023/08/25 14:49:36;;;;;;;1.70;1.57;;;27.10;99.90;;;;;;4899055;29;20455;-72
2023/08/25 14:52:04;;;;;;;2.97;1.47;;;27.00;99.90;;;;;;4898221;29;20662;-72
2023/08/25 14:54:33;;;;;;;0.70;0.30;;;27.00;99.90;;;;;;4898247;29;20458;-72
2023/08/25 14:57:03;;;;;;;1.80;1.03;;;27.10;99.90;;;;;;4896341;29;21017;-73
2023/08/25 14:59:33;;;;;;;6.67;3.33;;;27.20;99.90;;;;;;4884426;29;20511;-71
2023/08/25 15:02:00;;;;;;;1.20;0.80;;;27.30;99.90;;;;;;4886538;29;20567;-73
2023/08/25 15:04:29;;;;;;;1.07;0.50;;;27.40;99.90;;;;;;4897706;29;20847;-73
2023/08/25 15:06:57;;;;;;;1.30;1.07;;;27.60;99.90;;;;;;4896452;29;20480;-73
2023/08/25 15:09:24;;;;;;;0.70;0.10;;;27.60;99.90;;;;;;4897089;29;20543;-73
2023/08/25 15:11:52;;;;;;;0.77;0.33;;;27.80;99.90;;;;;;4889809;29;20565;-73
2023/08/25 15:14:21;;;;;;;1.30;0.70;;;;;;;;;;4897870;29;20471;-72
2023/08/25 15:16:50;;;;;;;2.17;1.83;;;27.90;99.90;;;;;;4897401;29;21026;-72
2023/08/25 15:19:18;;;;;;;0.70;0.17;;;28.10;99.90;;;;;;4896002;29;20536;-72
2023/08/25 15:21:46;;;;;;;0.70;0.33;;;28.20;99.90;;;;;;4896305;29;20485;-74
2023/08/25 15:24:13;;;;;;;1.23;0.87;;;28.30;99.90;;;;;;4897918;29;20555;-71
2023/08/25 15:26:41;;;;;;;1.10;0.77;;;28.40;99.90;;;;;;4896991;29;20452;-73
2023/08/25 15:29:09;;;;;;;2.10;1.03;;;28.40;99.90;;;;;;4895520;29;20445;-73
2023/08/25 15:31:37;;;;;;;1.10;0.67;;;28.30;99.90;;;;;;4895697;29;21085;-74
2023/08/25 15:34:07;;;;;;;3.00;1.27;;;28.30;99.90;;;;;;4896728;29;20460;-74
2023/08/25 15:36:35;;;;;;;1.30;1.20;;;28.30;99.90;;;;;;4897815;29;20508;-73
2023/08/25 15:39:04;;;;;;;0.90;0.43;;;28.30;99.90;;;;;;4898524;29;20540;-74
2023/08/25 15:41:34;;;;;;;3.13;1.30;;;28.20;99.90;;;;;;4897831;29;20902;-74
2023/08/25 15:44:05;;;;;;;1.20;0.80;;;28.30;99.90;;;;;;4896981;29;20452;-72
2023/08/25 15:46:33;;;;;;;0.70;0.20;;;28.40;99.90;;;;;;4897657;29;21057;-73
2023/08/25 15:49:01;;;;;;;1.03;0.70;;;28.50;99.90;;;;;;4897491;29;20492;-72
2023/08/25 15:51:30;;;;;;;3.63;1.03;;;28.60;99.90;;;;;;4897711;29;20563;-72
2023/08/25 15:53:58;;;;;;;1.80;1.53;;;28.70;99.90;;;;;;4898708;29;20795;-74
2023/08/25 15:56:26;;;;;;;1.33;1.23;;;28.80;99.90;;;;;;4898093;29;20476;-70
2023/08/25 15:58:54;;;;;;;0.70;0.20;;;28.70;99.90;;;;;;4897160;29;20543;-72
2023/08/25 16:01:21;;;;;;;2.57;2.37;;;28.50;99.90;;;;;;4897236;29;20476;-74
2023/08/25 16:03:49;;;;;;;0.70;0.20;;;28.50;99.90;;;;;;4898168;29;20532;-74
2023/08/25 16:06:17;;;;;;;0.93;0.57;;;28.40;99.90;;;;;;4897883;29;20523;-72
2023/08/25 16:08:46;;;;;;;4.33;1.80;;;28.30;99.90;;;;;;4898195;29;20540;-75
2023/08/25 16:11:14;;;;;;;1.83;1.03;;;28.20;99.90;;;;;;4897206;29;21105;-76
2023/08/25 16:13:42;;;;;;;3.00;2.67;;;28.10;99.90;;;;;;4896816;29;20452;-73
2023/08/25 16:16:10;;;;;;;0.70;0.20;;;27.90;99.90;;;;;;4898234;29;20536;-74
2023/08/25 16:18:40;;;;;;;0.77;0.27;;;28.00;99.90;;;;;;4898095;29;20489;-74
2023/08/25 16:21:08;;;;;;;0.70;0.17;;;28.30;99.90;;;;;;4898200;29;20479;-74
2023/08/25 16:23:38;;;;;;;1.40;1.30;;;28.40;99.90;;;;;;4901238;29;20941;-75
2023/08/25 16:26:09;;;;;;;2.20;0.83;;;28.50;99.90;;;;;;4901054;29;21057;-72
2023/08/25 16:28:37;;;;;;;6.17;1.97;;;28.60;99.90;;;;;;4899370;29;20522;-76
2023/08/25 16:31:08;;;;;;;2.10;0.30;;;28.80;99.90;;;;;;4926408;23;20526;-75
2023/08/25 16:33:39;;;;;;;0.70;0.10;;;28.80;99.90;;;;;;4896564;29;20473;-74
2023/08/25 16:36:08;;;;;;;1.10;0.83;;;28.90;99.90;;;;;;4896199;29;20444;-73
2023/08/25 16:38:36;;;;;;;3.00;1.37;;;28.90;99.90;;;;;;4897836;29;20469;-73
2023/08/25 16:41:04;;;;;;;0.70;0.10;;;28.70;99.90;;;;;;4897297;29;20476;-73
2023/08/25 16:43:33;;;;;;;0.70;0.20;;;28.70;99.90;;;;;;4896578;29;20531;-74
2023/08/25 16:46:02;;;;;;;0.70;0.30;;;28.70;99.90;;;;;;4896523;29;20997;-74
2023/08/25 16:48:31;;;;;;;3.23;2.20;;;28.50;99.90;;;;;;4896632;29;21009;-73
2023/08/25 16:50:59;;;;;;;1.23;0.70;;;28.20;99.90;;;;;;4896788;29;20507;-74
2023/08/25 16:53:26;;;;;;;1.10;0.60;;;28.20;99.90;;;;;;4896691;29;20907;-74
2023/08/25 16:55:54;;;;;;;1.40;1.03;;;28.30;99.90;;;;;;4896672;29;21152;-74
2023/08/25 16:58:27;;;;;;;1.03;0.80;;;28.30;99.90;;;;;;4896787;29;20452;-74
2023/08/25 17:00:56;;;;;;;0.70;0.20;;;28.40;99.90;;;;;;4900160;29;20480;-74